Time;durP1;ratioP1;P1;durP2;ratioP2;P2;SDS_P1;SDS_P2;PMS_P1;PMS_P2;Temp;Humidity;BMP_temperature;BMP_pressure;BME280_temperature;BME280_humidity;BME280_pressure;Samples;Min_cycle;Max_cycle;Signal;HPM_P1;HPM_P2
2022/12/28 00:00:33;;;;;;;;;;;;;;;6.28;81.37;100033.59;1714479;84;20464;-79
2022/12/28 00:03:37;;;;;;;;;;;;;;;6.19;81.86;100047.59;1714562;84;20231;-79
2022/12/28 00:06:42;;;;;;;;;;;;;;;6.04;81.85;100041.00;1713138;84;20203;-79
2022/12/28 00:09:45;;;;;;;;;;;;;;;5.88;81.93;100050.65;1714071;84;20219;-79
2022/12/28 00:12:50;;;;;;;;;;;;;;;5.86;82.21;100058.07;1715607;84;20247;-80
2022/12/28 00:15:53;;;;;;;;;;;;;;;5.89;82.04;100041.48;1715405;84;20219;-79
2022/12/28 00:18:57;;;;;;;;;;;;;;;5.76;81.11;100047.78;1714316;84;20231;-80
2022/12/28 00:22:01;;;;;;;;;;;;;;;5.52;81.50;100070.55;1715426;84;20271;-80
2022/12/28 00:25:06;;;;;;;;;;;;;;;5.33;82.11;100061.48;1714981;84;20349;-80
2022/12/28 00:28:10;;;;;;;;;;;;;;;5.61;81.49;100053.38;1714677;84;20235;-79
2022/12/28 00:31:14;;;;;;;;;;;;;;;5.51;81.76;100057.48;1699768;84;20223;-80
2022/12/28 00:34:20;;;;;;;;;;;;;;;5.56;81.60;100065.18;1684411;84;20233;-79
2022/12/28 00:37:25;;;;;;;;;;;;;;;5.45;81.72;100054.50;1692381;84;20236;-80
2022/12/28 00:40:30;;;;;;;;;;;;;;;5.19;82.56;100039.42;1700785;83;20256;-80
2022/12/28 00:43:34;;;;;;;;;;;;;;;5.19;81.20;100048.41;1674326;84;20234;-79
2022/12/28 00:46:38;;;;;;;;;;;;;;;5.17;81.26;100073.44;1658411;84;20218;-80
2022/12/28 00:49:43;;;;;;;;;;;;;;;4.90;80.73;100086.95;1682470;85;20651;-80
2022/12/28 00:52:48;;;;;;;;;;;;;;;4.80;80.11;100094.59;1684018;85;20222;-80
2022/12/28 00:55:51;;;;;;;;;;;;;;;4.94;79.46;100089.69;1684057;85;20221;-80
2022/12/28 00:58:56;;;;;;;;;;;;;;;4.82;79.23;100109.34;1683525;85;20691;-81
2022/12/28 01:01:59;;;;;;;;;;;;;;;4.92;79.16;100108.83;1684022;85;20639;-81
2022/12/28 01:05:04;;;;;;;;;;;;;;;4.99;78.75;100095.56;1683146;85;20356;-80
2022/12/28 01:08:09;;;;;;;;;;;;;;;4.80;78.85;100114.91;1683198;85;20400;-80
2022/12/28 01:11:20;;;;;;;;;;;;;;;4.73;79.22;100119.69;1676105;85;20624;-78
2022/12/28 01:14:26;;;;;;;;;;;;;;;4.67;79.11;100125.69;1674615;85;20210;-81
2022/12/28 01:17:29;;;;;;;;;;;;;;;4.68;78.94;100126.89;1676163;85;20250;-80
2022/12/28 01:20:33;;;;;;;;;;;;;;;4.60;78.30;100121.32;1674771;85;20226;-79
2022/12/28 01:23:39;;;;;;;;;;;;;;;4.85;77.23;100132.95;1676143;85;20221;-80
2022/12/28 01:26:42;;;;;;;;;;;;;;;4.75;74.98;100132.11;1676173;85;20253;-80
2022/12/28 01:29:47;;;;;;;;;;;;;;;4.72;74.95;100131.03;1675261;85;20219;-80
2022/12/28 01:32:52;;;;;;;;;;;;;;;4.68;74.78;100120.11;1674637;85;20225;-80
2022/12/28 01:35:57;;;;;;;;;;;;;;;4.65;74.79;100131.23;1675017;85;20214;-80
2022/12/28 01:39:03;;;;;;;;;;;;;;;4.65;75.13;100128.52;1675687;85;20219;-80
2022/12/28 01:42:07;;;;;;;;;;;;;;;4.65;75.11;100117.68;1676281;85;20230;-79
2022/12/28 01:45:24;;;;;;;;;;;;;;;4.60;75.46;100130.80;1674619;85;20814;-79
2022/12/28 01:48:30;;;;;;;;;;;;;;;4.67;75.18;100134.67;1676246;85;20251;-80
2022/12/28 01:51:35;;;;;;;;;;;;;;;4.62;75.24;100143.72;1674866;85;20613;-80
2022/12/28 01:54:52;;;;;;;;;;;;;;;4.52;75.83;100143.72;1676380;85;20242;-80
2022/12/28 01:58:03;;;;;;;;;;;;;;;4.54;76.12;100143.06;1676287;85;20641;-80
2022/12/28 02:01:08;;;;;;;;;;;;;;;4.55;76.33;100145.27;1676181;85;20250;-79
2022/12/28 02:04:11;;;;;;;;;;;;;;;4.55;76.69;100144.77;1676154;85;20250;-79
2022/12/28 02:07:16;;;;;;;;;;;;;;;4.53;76.98;100153.55;1676170;85;20631;-79
2022/12/28 02:10:21;;;;;;;;;;;;;;;4.51;77.30;100151.47;1668779;84;20372;-79
2022/12/28 02:13:27;;;;;;;;;;;;;;;4.46;77.08;100161.02;1664940;86;20207;-79
2022/12/28 02:16:31;;;;;;;;;;;;;;;4.44;77.04;100152.19;1665416;86;20207;-79
2022/12/28 02:19:49;;;;;;;;;;;;;;;4.46;76.63;100165.93;1665315;86;20211;-79
2022/12/28 02:23:17;;;;;;;;;;;;;;;4.45;77.22;100171.50;1665412;86;20613;-79
2022/12/28 02:26:33;;;;;;;;;;;;;;;4.50;77.44;100165.16;1665555;86;20186;-79
2022/12/28 02:29:43;;;;;;;;;;;;;;;4.67;77.16;100167.18;1665594;86;20199;-78
2022/12/28 02:33:01;;;;;;;;;;;;;;;4.58;77.12;100174.80;1663692;86;20307;-79
2022/12/28 02:36:16;;;;;;;;;;;;;;;4.37;77.81;100178.96;1663900;86;20231;-78
2022/12/28 02:39:27;;;;;;;;;;;;;;;4.43;77.41;100174.36;1663950;86;20235;-79
2022/12/28 02:42:32;;;;;;;;;;;;;;;4.45;76.93;100182.34;1664655;86;20211;-80
2022/12/28 02:52:47;;;;;;;;;;;;;;;4.08;79.33;100184.30;1663477;86;20247;-80
2022/12/28 02:56:08;;;;;;;;;;;;;;;4.07;79.85;100197.48;1665149;86;20222;-80
2022/12/28 02:59:34;;;;;;;;;;;;;;;3.96;79.78;100197.10;1665009;86;20218;-79
2022/12/28 03:02:41;;;;;;;;;;;;;;;3.98;79.73;100199.66;1665226;86;20230;-79
2022/12/28 03:09:39;;;;;;;;;;;;;;;3.78;80.30;100189.27;1665117;86;20616;-80
2022/12/28 03:12:50;;;;;;;;;;;;;;;3.62;80.03;100196.50;1684126;85;20357;-79
2022/12/28 03:15:55;;;;;;;;;;;;;;;3.54;80.10;100213.42;1684187;85;20222;-79
2022/12/28 03:32:36;;;;;;;;;;;;;;;3.55;80.26;100222.39;1682747;85;20222;-79
2022/12/28 03:35:52;;;;;;;;;;;;;;;3.56;79.96;100234.91;1682579;85;20229;-79
2022/12/28 03:39:08;;;;;;;;;;;;;;;3.54;79.90;100237.76;1673660;85;20221;-80
2022/12/28 03:46:05;;;;;;;;;;;;;;;3.58;79.84;100245.13;1684022;85;20659;-79
2022/12/28 03:49:10;;;;;;;;;;;;;;;3.55;79.78;100239.47;1683882;85;20623;-80
2022/12/28 03:52:16;;;;;;;;;;;;;;;3.59;79.49;100244.98;1682947;85;20218;-79
2022/12/28 03:55:21;;;;;;;;;;;;;;;3.64;79.41;100241.88;1682503;85;20209;-79
2022/12/28 03:58:26;;;;;;;;;;;;;;;3.64;79.50;100253.19;1684073;85;20218;-79
2022/12/28 04:01:31;;;;;;;;;;;;;;;3.54;79.32;100249.08;1682587;85;20631;-78
2022/12/28 04:04:30;;;;;;;;;;;;;;;3.53;79.42;100244.16;1684083;85;20233;-80
2022/12/28 04:07:34;;;;;;;;;;;;;;;3.33;79.73;100248.56;1682967;85;20254;-80
2022/12/28 04:10:39;;;;;;;;;;;;;;;3.27;80.22;100265.31;1683601;85;20651;-80
2022/12/28 04:13:43;;;;;;;;;;;;;;;3.32;80.33;100264.92;1683950;85;20206;-80
2022/12/28 04:16:51;;;;;;;;;;;;;;;3.36;80.22;100262.83;1684080;85;20222;-79
2022/12/28 04:19:56;;;;;;;;;;;;;;;3.29;80.09;100260.66;1684034;85;20631;-80
2022/12/28 04:23:01;;;;;;;;;;;;;;;3.10;80.58;100269.94;1682896;85;20218;-79
2022/12/28 04:26:12;;;;;;;;;;;;;;;2.95;81.11;100276.14;1683896;85;20651;-79
2022/12/28 04:29:17;;;;;;;;;;;;;;;2.98;81.28;100277.74;1683928;85;20623;-79
2022/12/28 04:32:18;;;;;;;;;;;;;;;2.97;81.56;100278.73;1711143;84;20220;-79
2022/12/28 04:35:23;;;;;;;;;;;;;;;3.13;81.36;100282.34;1712554;84;20644;-79
2022/12/28 04:38:27;;;;;;;;;;;;;;;3.04;81.42;100288.88;1711221;84;20367;-79
2022/12/28 04:41:33;;;;;;;;;;;;;;;3.02;82.01;100288.17;1711750;84;20216;-80
2022/12/28 04:44:37;;;;;;;;;;;;;;;3.06;81.69;100299.09;1712484;84;20200;-77
2022/12/28 04:47:41;;;;;;;;;;;;;;;2.91;82.14;100300.84;1712386;84;20227;-79
2022/12/28 04:50:46;;;;;;;;;;;;;;;2.86;82.62;100305.27;1710801;84;20224;-79
2022/12/28 04:53:51;;;;;;;;;;;;;;;3.06;82.49;100309.89;1710961;84;20256;-80
2022/12/28 04:56:56;;;;;;;;;;;;;;;3.07;82.46;100316.16;1712571;84;20207;-79
2022/12/28 05:00:01;;;;;;;;;;;;;;;3.04;82.49;100319.11;1712620;84;20227;-80
2022/12/28 05:03:07;;;;;;;;;;;;;;;3.18;82.11;100324.70;1712625;84;20255;-80
2022/12/28 05:06:09;;;;;;;;;;;;;;;3.06;82.51;100320.70;1712523;84;20215;-80
2022/12/28 05:09:14;;;;;;;;;;;;;;;2.91;83.20;100321.95;1710973;84;20235;-79
2022/12/28 05:12:18;;;;;;;;;;;;;;;2.90;83.37;100326.15;1708213;84;20212;-80
2022/12/28 05:15:22;;;;;;;;;;;;;;;2.98;82.60;100329.08;1700855;84;20220;-80
2022/12/28 05:18:26;;;;;;;;;;;;;;;2.94;82.64;100326.27;1701045;84;20221;-80
2022/12/28 05:21:33;;;;;;;;;;;;;;;2.87;82.77;100327.73;1700372;84;20260;-79
2022/12/28 05:24:38;;;;;;;;;;;;;;;2.88;82.76;100351.09;1707660;83;20701;-79
2022/12/28 05:27:43;;;;;;;;;;;;;;;2.45;83.62;100356.80;1672930;86;20222;-80
2022/12/28 05:30:47;;;;;;;;;;;;;;;2.67;83.35;100358.59;1672692;86;20202;-80
2022/12/28 05:33:46;;;;;;;;;;;;;;;2.60;83.51;100356.05;1672833;86;20723;-80
2022/12/28 05:36:39;;;;;;;;;;;;;;;2.59;83.61;100360.20;1657979;85;20223;-80
2022/12/28 05:39:44;;;;;;;;;;;;;;;2.38;84.30;100365.50;1688776;84;20204;-80
2022/12/28 05:42:48;;;;;;;;;;;;;;;2.66;84.03;100366.34;1675180;84;20221;-80
2022/12/28 05:45:51;;;;;;;;;;;;;;;2.63;84.18;100363.02;1696617;84;20169;-80
2022/12/28 05:48:55;;;;;;;;;;;;;;;2.72;84.11;100366.33;1664250;85;20660;-80
2022/12/28 05:52:00;;;;;;;;;;;;;;;2.69;84.32;100374.20;1645913;86;20755;-79
2022/12/28 05:55:04;;;;;;;;;;;;;;;2.76;84.36;100373.20;1665652;84;20196;-80
2022/12/28 05:58:08;;;;;;;;;;;;;;;2.75;84.71;100375.05;1670084;85;20233;-80
2022/12/28 06:01:15;;;;;;;;;;;;;;;2.85;84.67;100376.50;1678415;84;20218;-79
2022/12/28 06:04:25;;;;;;;;;;;;;;;2.84;85.10;100371.23;1680398;84;20282;-79
2022/12/28 06:07:29;;;;;;;;;;;;;;;2.86;85.21;100378.72;1676199;84;20194;-78
2022/12/28 06:10:34;;;;;;;;;;;;;;;2.95;85.14;100384.72;1683582;84;20203;-79
2022/12/28 06:13:40;;;;;;;;;;;;;;;2.95;85.25;100378.81;1667151;85;20234;-78
2022/12/28 06:16:47;;;;;;;;;;;;;;;2.95;85.47;100386.06;1669443;84;20765;-79
2022/12/28 06:19:52;;;;;;;;;;;;;;;3.00;85.47;100391.95;1681410;85;20246;-79
2022/12/28 06:22:56;;;;;;;;;;;;;;;3.09;85.26;100396.60;1678360;85;20205;-78
2022/12/28 06:26:02;;;;;;;;;;;;;;;3.10;85.10;100395.61;1680735;85;20228;-78
2022/12/28 06:29:07;;;;;;;;;;;;;;;3.20;84.82;100400.65;1660706;85;20231;-78
2022/12/28 06:32:05;;;;;;;;;;;;;;;3.15;84.73;100415.01;1680540;85;20681;-77
2022/12/28 06:35:11;;;;;;;;;;;;;;;3.15;84.70;100422.26;1677307;85;20212;-78
2022/12/28 06:38:15;;;;;;;;;;;;;;;3.18;84.45;100436.39;1685800;85;20236;-79
2022/12/28 06:41:20;;;;;;;;;;;;;;;3.13;84.66;100444.52;1692282;85;20654;-78
2022/12/28 06:44:24;;;;;;;;;;;;;;;3.14;84.79;100455.19;1663990;85;20235;-77
2022/12/28 06:47:29;;;;;;;;;;;;;;;3.19;84.66;100454.81;1674436;85;20329;-77
2022/12/28 06:50:33;;;;;;;;;;;;;;;3.22;84.70;100465.39;1669411;85;20271;-78
2022/12/28 06:53:43;;;;;;;;;;;;;;;3.24;84.69;100471.02;1697307;83;20222;-79
2022/12/28 06:56:48;;;;;;;;;;;;;;;3.36;84.44;100471.02;1681155;85;20222;-78
2022/12/28 06:59:54;;;;;;;;;;;;;;;3.42;84.10;100464.59;1664984;84;20238;-78
2022/12/28 07:03:03;;;;;;;;;;;;;;;3.44;83.82;100465.84;1690154;84;20259;-78
2022/12/28 07:06:08;;;;;;;;;;;;;;;3.28;84.06;100468.94;1664443;85;20234;-79
2022/12/28 07:09:15;;;;;;;;;;;;;;;3.43;83.55;100464.95;1670740;85;20214;-78
2022/12/28 07:12:19;;;;;;;;;;;;;;;3.28;83.78;100467.58;1674108;85;20266;-78
2022/12/28 07:15:24;;;;;;;;;;;;;;;3.56;82.74;100467.52;1675768;83;20638;-78
2022/12/28 07:18:30;;;;;;;;;;;;;;;3.55;82.32;100477.98;1684914;83;20282;-78
2022/12/28 07:21:41;;;;;;;;;;;;;;;3.47;82.79;100491.27;1660399;85;20216;-78
2022/12/28 07:24:45;;;;;;;;;;;;;;;3.63;81.91;100490.88;1685429;84;20232;-78
2022/12/28 07:27:50;;;;;;;;;;;;;;;3.56;81.65;100495.42;1681297;85;20610;-79
2022/12/28 07:30:56;;;;;;;;;;;;;;;3.49;81.90;100497.42;1677582;84;20231;-78
2022/12/28 07:34:01;;;;;;;;;;;;;;;3.53;81.44;100503.80;1667533;85;20231;-78
2022/12/28 07:37:00;;;;;;;;;;;;;;;3.48;81.45;100513.26;1673860;84;20289;-79
2022/12/28 07:39:52;;;;;;;;;;;;;;;3.29;82.10;100516.14;1691704;84;20260;-79
2022/12/28 07:42:39;;;;;;;;;;;;;;;3.41;82.25;100509.35;1695340;84;20246;-78
2022/12/28 07:45:31;;;;;;;;;;;;;;;3.39;82.24;100512.66;1681045;84;20232;-79
2022/12/28 07:48:16;;;;;;;;;;;;;;;3.48;82.30;100501.09;1651279;85;20249;-78
2022/12/28 07:51:15;;;;;;;;;;;;;;;3.63;81.64;100505.26;1674813;84;20332;-79
2022/12/28 07:54:11;;;;;;;;;;;;;;;3.66;81.37;100513.59;1666738;84;20252;-78
2022/12/28 07:57:02;;;;;;;;;;;;;;;3.78;80.96;100517.50;1668453;84;20649;-78
2022/12/28 08:00:06;;;;;;;;;;;;;;;3.71;80.77;100520.34;1667203;84;20266;-79
2022/12/28 08:03:11;;;;;;;;;;;;;;;3.62;80.99;100525.16;1659788;84;20225;-79
2022/12/28 08:06:22;;;;;;;;;;;;;;;3.57;81.25;100516.06;1663685;84;20459;-78
2022/12/28 08:09:26;;;;;;;;;;;;;;;3.46;81.54;100515.24;1690967;83;20220;-79
2022/12/28 08:12:30;;;;;;;;;;;;;;;3.50;81.71;100511.30;1674986;85;20698;-79
2022/12/28 08:15:35;;;;;;;;;;;;;;;3.58;81.64;100517.81;1672669;85;20223;-79
2022/12/28 08:18:40;;;;;;;;;;;;;;;3.63;81.55;100529.60;1690669;83;20273;-79
2022/12/28 08:21:46;;;;;;;;;;;;;;;3.65;81.91;100514.09;1696185;83;20244;-79
2022/12/28 08:24:51;;;;;;;;;;;;;;;3.70;81.52;100528.09;1715271;82;20248;-79
2022/12/28 08:27:55;;;;;;;;;;;;;;;3.75;81.45;100535.33;1672134;85;20211;-79
2022/12/28 08:31:01;;;;;;;;;;;;;;;3.96;81.08;100539.97;1672737;84;20213;-78
2022/12/28 08:34:06;;;;;;;;;;;;;;;4.04;80.37;100526.62;1675449;84;20212;-79
2022/12/28 08:37:04;;;;;;;;;;;;;;;4.06;80.12;100536.34;1670464;84;20234;-79
2022/12/28 08:39:57;;;;;;;;;;;;;;;4.11;79.53;100535.96;1670789;85;20230;-79
2022/12/28 08:42:42;;;;;;;;;;;;;;;4.17;79.71;100535.94;1702992;84;20227;-80
2022/12/28 08:45:35;;;;;;;;;;;;;;;4.21;79.30;100536.89;1674702;84;20220;-80
2022/12/28 08:48:21;;;;;;;;;;;;;;;4.27;79.12;100529.59;1699596;84;20244;-79
2022/12/28 08:51:25;;;;;;;;;;;;;;;4.33;78.71;100526.89;1697460;84;20220;-79
2022/12/28 08:54:13;;;;;;;;;;;;;;;4.47;77.91;100534.69;1688315;84;20257;-80
2022/12/28 08:57:04;;;;;;;;;;;;;;;4.53;77.55;100543.63;1691844;84;20251;-80
2022/12/28 08:59:49;;;;;;;;;;;;;;;4.57;77.36;100548.30;1668414;85;20648;-80
2022/12/28 09:02:41;;;;;;;;;;;;;;;4.59;77.38;100545.80;1697524;83;20266;-81
2022/12/28 09:05:46;;;;;;;;;;;;;;;4.58;76.92;100549.52;1675262;84;20241;-79
2022/12/28 09:08:53;;;;;;;;;;;;;;;4.61;76.78;100556.50;1657057;85;20246;-78
2022/12/28 09:12:01;;;;;;;;;;;;;;;4.61;77.07;100551.08;1677845;83;20233;-80
2022/12/28 09:15:07;;;;;;;;;;;;;;;4.58;76.90;100554.08;1690777;84;20329;-79
2022/12/28 09:18:11;;;;;;;;;;;;;;;4.60;77.43;100554.79;1640174;87;20248;-78
2022/12/28 09:21:20;;;;;;;;;;;;;;;4.77;77.58;100553.34;1673101;85;20226;-79
2022/12/28 09:24:26;;;;;;;;;;;;;;;4.92;77.04;100549.29;1671345;85;20329;-80
2022/12/28 09:27:31;;;;;;;;;;;;;;;4.96;76.83;100547.17;1659979;86;20230;-81
2022/12/28 09:30:34;;;;;;;;;;;;;;;5.02;77.04;100556.12;1660905;85;20256;-79
2022/12/28 09:36:50;;;;;;;;;;;;;;;5.08;76.58;100553.74;1635463;87;20251;-79
2022/12/28 09:39:54;;;;;;;;;;;;;;;5.03;76.49;100554.62;1664749;86;20390;-79
2022/12/28 09:42:57;;;;;;;;;;;;;;;5.00;76.86;100554.91;1666129;84;20242;-80
2022/12/28 09:46:01;;;;;;;;;;;;;;;5.03;76.75;100560.54;1652689;86;20207;-79
2022/12/28 09:49:05;;;;;;;;;;;;;;;5.11;77.04;100549.89;1637182;87;20196;-79
2022/12/28 09:52:22;;;;;;;;;;;;;;;5.19;76.51;100561.42;1668246;84;20223;-79
2022/12/28 09:55:29;;;;;;;;;;;;;;;5.13;76.36;100561.48;1640350;85;20704;-81
2022/12/28 09:58:33;;;;;;;;;;;;;;;5.07;76.95;100570.13;1660247;85;21018;-79
2022/12/28 10:01:44;;;;;;;;;;;;;;;5.18;77.28;100580.91;1648863;85;20994;-79
2022/12/28 10:04:49;;;;;;;;;;;;;;;5.20;77.44;100580.27;1643446;86;20248;-79
2022/12/28 10:07:53;;;;;;;;;;;;;;;5.29;76.26;100589.44;1643185;86;20434;-79
2022/12/28 10:10:59;;;;;;;;;;;;;;;5.32;76.75;100588.69;1640932;86;20657;-78
2022/12/28 10:14:06;;;;;;;;;;;;;;;5.34;76.87;100588.03;1655641;86;20238;-79
2022/12/28 10:17:11;;;;;;;;;;;;;;;5.24;76.92;100594.42;1664448;84;20720;-81
2022/12/28 10:20:24;;;;;;;;;;;;;;;5.39;76.99;100600.69;1658796;85;20735;-81
2022/12/28 10:23:31;;;;;;;;;;;;;;;5.36;77.08;100596.92;1673426;84;20236;-79
2022/12/28 10:26:38;;;;;;;;;;;;;;;5.35;77.27;100592.96;1685272;84;20223;-79
2022/12/28 10:29:41;;;;;;;;;;;;;;;5.38;77.51;100593.55;1663075;84;21591;-79
2022/12/28 10:33:00;;;;;;;;;;;;;;;5.44;77.67;100613.00;1665051;84;20216;-79
2022/12/28 10:36:06;;;;;;;;;;;;;;;5.44;77.61;100617.06;1662485;84;20707;-79
2022/12/28 10:39:10;;;;;;;;;;;;;;;5.49;76.89;100622.94;1688274;84;20224;-79
2022/12/28 10:42:19;;;;;;;;;;;;;;;5.26;76.74;100627.17;1663907;84;20250;-79
2022/12/28 10:45:25;;;;;;;;;;;;;;;5.60;77.31;100616.94;1666570;85;20190;-79
2022/12/28 10:48:44;;;;;;;;;;;;;;;5.69;76.86;100609.80;1667685;85;20218;-79
2022/12/28 10:51:51;;;;;;;;;;;;;;;5.55;76.65;100616.48;1663008;85;20675;-79
2022/12/28 10:54:56;;;;;;;;;;;;;;;5.58;76.84;100622.12;1653972;85;20672;-79
2022/12/28 10:58:03;;;;;;;;;;;;;;;5.67;77.62;100620.45;1684137;84;20223;-79
2022/12/28 11:01:22;;;;;;;;;;;;;;;5.70;77.54;100628.33;1692415;84;20295;-78
2022/12/28 11:04:30;;;;;;;;;;;;;;;5.63;77.41;100628.85;1687145;84;20272;-79
2022/12/28 11:07:44;;;;;;;;;;;;;;;5.51;77.29;100638.61;1652845;85;20216;-79
2022/12/28 11:10:47;;;;;;;;;;;;;;;5.35;78.18;100629.58;1670175;85;20241;-79
2022/12/28 11:14:01;;;;;;;;;;;;;;;5.34;78.53;100636.86;1657309;86;20239;-79
2022/12/28 11:17:06;;;;;;;;;;;;;;;5.24;78.11;100645.45;1662834;85;20930;-79
2022/12/28 11:20:14;;;;;;;;;;;;;;;5.42;77.56;100644.34;1647803;85;20651;-78
2022/12/28 11:23:23;;;;;;;;;;;;;;;5.44;77.08;100649.62;1647978;87;20286;-76
2022/12/28 11:26:28;;;;;;;;;;;;;;;5.55;78.05;100669.41;1647467;86;20256;-78
2022/12/28 11:29:34;;;;;;;;;;;;;;;5.52;76.39;100645.73;1633294;86;20245;-78
2022/12/28 11:32:40;;;;;;;;;;;;;;;5.30;75.77;100654.39;1662137;84;20238;-79
2022/12/28 11:35:45;;;;;;;;;;;;;;;5.31;76.17;100658.82;1662740;84;20620;-78
2022/12/28 11:38:55;;;;;;;;;;;;;;;5.47;75.00;100665.14;1663025;84;20239;-78
2022/12/28 11:42:03;;;;;;;;;;;;;;;5.50;75.08;100660.78;1661683;84;20663;-78
2022/12/28 11:45:20;;;;;;;;;;;;;;;5.52;75.96;100672.38;1658050;84;20230;-79
2022/12/28 11:48:51;;;;;;;;;;;;;;;5.42;76.38;100666.05;1643590;86;20234;-78
2022/12/28 11:51:57;;;;;;;;;;;;;;;5.57;75.60;100671.47;1662663;85;20296;-80
2022/12/28 11:55:06;;;;;;;;;;;;;;;5.57;75.28;100671.97;1666584;84;20256;-80
2022/12/28 11:58:36;;;;;;;;;;;;;;;5.50;75.17;100675.70;1662034;84;20223;-80
2022/12/28 12:01:46;;;;;;;;;;;;;;;5.43;75.43;100683.17;1662350;85;21123;-77
2022/12/28 12:04:51;;;;;;;;;;;;;;;5.37;75.88;100688.65;1671105;84;20688;-79
2022/12/28 12:07:55;;;;;;;;;;;;;;;5.29;75.99;100697.94;1673310;84;20244;-78
2022/12/28 12:11:33;;;;;;;;;;;;;;;5.38;75.51;100702.06;1666687;84;20233;-77
2022/12/28 12:14:37;;;;;;;;;;;;;;;5.35;75.81;100702.32;1622500;87;20713;-78
2022/12/28 12:17:46;;;;;;;;;;;;;;;5.33;76.19;100704.32;1675271;84;20288;-79
2022/12/28 12:20:43;;;;;;;;;;;;;;;5.08;76.82;100711.02;1696071;84;20259;-78
2022/12/28 12:23:52;;;;;;;;;;;;;;;5.14;76.72;100706.91;1688449;84;20232;-78
2022/12/28 12:26:41;;;;;;;;;;;;;;;5.15;77.23;100722.67;1687875;84;20250;-77
2022/12/28 12:29:36;;;;;;;;;;;;;;;5.09;77.72;100729.00;1681360;85;20218;-78
2022/12/28 12:32:27;;;;;;;;;;;;;;;4.86;79.32;100734.16;1681587;85;20257;-78
2022/12/28 12:35:21;;;;;;;;;;;;;;;5.12;79.06;100734.63;1681445;84;20591;-78
2022/12/28 12:38:48;;;;;;;;;;;;;;;5.03;79.89;100736.27;1680386;85;20227;-79
2022/12/28 12:42:14;;;;;;;;;;;;;;;4.94;80.78;100738.91;1686707;84;20200;-78
2022/12/28 12:45:32;;;;;;;;;;;;;;;4.71;81.58;100743.08;1695278;84;20404;-78
2022/12/28 12:48:41;;;;;;;;;;;;;;;4.59;83.02;100758.98;1694350;84;20224;-78
2022/12/28 12:51:41;;;;;;;;;;;;;;;4.55;83.57;100768.35;1695929;84;20232;-78
2022/12/28 12:54:51;;;;;;;;;;;;;;;4.60;83.81;100770.19;1695711;84;20244;-78
2022/12/28 12:58:09;;;;;;;;;;;;;;;4.79;83.52;100782.57;1689731;84;20277;-77
2022/12/28 13:01:40;;;;;;;;;;;;;;;4.81;83.56;100787.89;1695748;84;20220;-79
2022/12/28 13:04:45;;;;;;;;;;;;;;;4.61;84.65;100782.27;1695510;84;20342;-78
2022/12/28 13:07:49;;;;;;;;;;;;;;;4.46;84.95;100777.23;1694524;84;20532;-78
2022/12/28 13:10:53;;;;;;;;;;;;;;;4.79;84.19;100779.86;1689867;84;20217;-77
2022/12/28 13:14:00;;;;;;;;;;;;;;;4.63;84.42;100783.49;1676575;84;20626;-79
2022/12/28 13:17:05;;;;;;;;;;;;;;;4.64;84.01;100791.12;1695913;84;20725;-79
2022/12/28 13:20:17;;;;;;;;;;;;;;;4.55;83.01;100790.88;1691598;84;20237;-78
2022/12/28 13:23:22;;;;;;;;;;;;;;;4.57;81.44;100797.05;1669186;85;20802;-78
2022/12/28 13:26:30;;;;;;;;;;;;;;;4.51;80.04;100800.74;1665331;85;20851;-77
2022/12/28 13:29:44;;;;;;;;;;;;;;;4.40;79.80;100807.05;1682349;85;20221;-78
2022/12/28 13:32:59;;;;;;;;;;;;;;;4.25;79.58;100810.50;1657876;85;20221;-78
2022/12/28 13:36:19;;;;;;;;;;;;;;;4.23;79.46;100812.95;1683157;85;20228;-80
2022/12/28 13:39:24;;;;;;;;;;;;;;;4.19;79.52;100820.48;1683428;85;20222;-80
2022/12/28 13:42:36;;;;;;;;;;;;;;;4.07;79.61;100829.08;1683398;85;20217;-79
2022/12/28 13:45:40;;;;;;;;;;;;;;;4.00;79.90;100835.09;1682189;85;20240;-77
2022/12/28 13:48:50;;;;;;;;;;;;;;;3.99;80.08;100836.94;1666022;85;20253;-77
2022/12/28 13:51:55;;;;;;;;;;;;;;;4.17;79.78;100841.39;1667851;85;20205;-77
2022/12/28 13:55:01;;;;;;;;;;;;;;;4.25;79.29;100858.39;1682477;85;20390;-76
2022/12/28 13:58:08;;;;;;;;;;;;;;;4.10;79.11;100851.86;1675209;85;20241;-77
2022/12/28 14:01:15;;;;;;;;;;;;;;;3.97;79.69;100853.80;1663145;85;20410;-77
2022/12/28 14:04:23;;;;;;;;;;;;;;;3.96;79.74;100860.20;1655518;87;20332;-77
2022/12/28 14:07:32;;;;;;;;;;;;;;;3.96;80.04;100855.29;1658764;85;20253;-77
2022/12/28 14:10:36;;;;;;;;;;;;;;;3.92;80.00;100864.63;1655847;87;20668;-77
2022/12/28 14:13:42;;;;;;;;;;;;;;;3.92;79.83;100871.39;1655602;87;20695;-78
2022/12/28 14:16:46;;;;;;;;;;;;;;;3.64;80.28;100880.30;1659372;85;20253;-78
2022/12/28 14:19:51;;;;;;;;;;;;;;;3.69;80.17;100872.69;1676322;85;20305;-78
2022/12/28 14:22:56;;;;;;;;;;;;;;;3.51;80.57;100883.56;1700833;84;20220;-77
2022/12/28 14:26:03;;;;;;;;;;;;;;;3.72;79.90;100882.42;1680973;85;21216;-77
2022/12/28 14:29:08;;;;;;;;;;;;;;;3.53;79.70;100877.07;1699773;84;20242;-78
2022/12/28 14:32:13;;;;;;;;;;;;;;;3.43;79.42;100891.39;1684785;85;20198;-78
2022/12/28 14:35:22;;;;;;;;;;;;;;;3.36;79.44;100891.49;1683934;85;20258;-78
2022/12/28 14:38:31;;;;;;;;;;;;;;;3.30;79.20;100892.33;1685322;85;20233;-77
2022/12/28 14:41:40;;;;;;;;;;;;;;;3.24;79.22;100903.59;1684472;85;20230;-77
2022/12/28 14:44:46;;;;;;;;;;;;;;;3.38;78.83;100907.95;1714828;84;20211;-77
2022/12/28 14:47:52;;;;;;;;;;;;;;;3.36;78.40;100901.81;1714158;84;20223;-77
2022/12/28 14:51:09;;;;;;;;;;;;;;;3.13;79.31;100907.59;1714710;84;20665;-77
2022/12/28 14:54:29;;;;;;;;;;;;;;;3.17;79.60;100909.59;1713560;84;20232;-79
2022/12/28 14:57:42;;;;;;;;;;;;;;;3.14;78.98;100918.77;1714521;84;20232;-77
2022/12/28 15:00:51;;;;;;;;;;;;;;;2.94;79.71;100922.09;1714257;84;20665;-77
2022/12/28 15:04:08;;;;;;;;;;;;;;;3.00;79.35;100929.74;1715287;84;20244;-77
2022/12/28 15:07:15;;;;;;;;;;;;;;;3.21;78.35;100936.28;1715591;84;20616;-78
2022/12/28 15:10:19;;;;;;;;;;;;;;;3.18;78.48;100943.25;1715684;84;20223;-77
2022/12/28 15:13:24;;;;;;;;;;;;;;;3.28;77.76;100947.48;1713873;84;20287;-77
2022/12/28 15:16:29;;;;;;;;;;;;;;;3.19;77.10;100941.41;1715066;84;20223;-76
2022/12/28 15:19:35;;;;;;;;;;;;;;;3.19;77.21;100949.03;1714468;84;20219;-77
2022/12/28 15:22:39;;;;;;;;;;;;;;;3.44;76.42;100945.87;1705212;84;20228;-77
2022/12/28 15:25:43;;;;;;;;;;;;;;;3.31;75.45;100953.54;1701343;84;20224;-78
2022/12/28 15:28:48;;;;;;;;;;;;;;;3.32;74.25;100952.55;1700777;84;20256;-78
2022/12/28 15:31:53;;;;;;;;;;;;;;;3.30;73.27;100962.64;1700219;84;20633;-78
2022/12/28 15:34:58;;;;;;;;;;;;;;;3.31;72.10;100963.50;1699889;84;20236;-77
2022/12/28 15:38:02;;;;;;;;;;;;;;;3.30;71.98;100970.75;1701696;84;20224;-77
2022/12/28 15:41:44;;;;;;;;;;;;;;;3.41;70.67;100976.70;1701533;84;20248;-78
2022/12/28 15:44:12;;;;;;;;;;;;;;;3.13;71.33;100977.88;1701501;84;20196;-78
2022/12/28 15:47:16;;;;;;;;;;;;;;;3.04;71.26;100977.20;1700689;84;20617;-77
2022/12/28 15:50:21;;;;;;;;;;;;;;;3.02;70.96;100977.31;1700254;84;20676;-78
2022/12/28 15:53:26;;;;;;;;;;;;;;;3.28;69.78;100987.55;1686046;84;20220;-78
2022/12/28 15:56:33;;;;;;;;;;;;;;;3.28;69.46;100989.40;1688295;84;20240;-77
2022/12/28 15:59:37;;;;;;;;;;;;;;;3.29;68.95;100987.95;1683149;84;20645;-78
2022/12/28 16:02:36;;;;;;;;;;;;;;;3.35;68.96;100987.13;1680798;84;20399;-77
2022/12/28 16:05:41;;;;;;;;;;;;;;;3.35;69.13;100996.59;1686778;84;20641;-78
2022/12/28 16:08:45;;;;;;;;;;;;;;;3.38;68.80;100996.34;1685612;84;20281;-78
2022/12/28 16:11:50;;;;;;;;;;;;;;;3.33;68.81;101000.24;1688132;84;20251;-77
2022/12/28 16:14:54;;;;;;;;;;;;;;;3.35;68.79;101000.65;1684398;84;20682;-77
2022/12/28 16:17:58;;;;;;;;;;;;;;;3.32;68.95;101002.58;1688352;84;20284;-77
2022/12/28 16:21:07;;;;;;;;;;;;;;;3.16;68.97;100998.43;1687969;84;20217;-77
2022/12/28 16:24:13;;;;;;;;;;;;;;;3.31;68.53;101004.06;1681526;84;20233;-76
2022/12/28 16:27:19;;;;;;;;;;;;;;;3.11;68.83;101006.02;1677513;85;20610;-78
2022/12/28 16:30:25;;;;;;;;;;;;;;;3.21;68.68;101014.69;1673269;85;20237;-77
2022/12/28 16:33:30;;;;;;;;;;;;;;;3.02;69.00;101007.54;1679733;85;20221;-78
2022/12/28 16:36:33;;;;;;;;;;;;;;;3.05;69.17;101019.45;1675469;85;20233;-77
2022/12/28 16:39:38;;;;;;;;;;;;;;;3.05;68.89;101030.27;1679068;85;20631;-78